createdAt,value
2018-07-19T00:00:12.680Z,20.96
2018-07-19T00:01:12.672Z,20.96
2018-07-19T00:02:12.662Z,21.03
2018-07-19T00:03:12.654Z,20.98
2018-07-19T00:04:12.650Z,20.93
2018-07-19T00:05:12.641Z,20.87
2018-07-19T00:06:12.635Z,20.83
2018-07-19T00:07:12.628Z,20.87
2018-07-19T00:08:12.647Z,20.88
2018-07-19T00:09:12.609Z,20.88
2018-07-19T00:10:12.600Z,20.82
2018-07-19T00:11:12.592Z,20.79
2018-07-19T00:12:12.586Z,20.83
2018-07-19T00:13:12.581Z,20.75
2018-07-19T00:14:12.569Z,20.72
2018-07-19T00:15:12.560Z,20.75
2018-07-19T00:16:12.554Z,20.68
2018-07-19T00:17:12.546Z,20.68
2018-07-19T00:18:12.536Z,20.72
2018-07-19T00:19:12.533Z,20.72
2018-07-19T00:20:12.522Z,20.69
2018-07-19T00:21:12.513Z,20.66
2018-07-19T00:22:12.504Z,20.71
2018-07-19T00:23:12.498Z,20.64
2018-07-19T00:24:12.496Z,20.57
2018-07-19T00:25:12.483Z,20.54
2018-07-19T00:26:12.475Z,20.44
2018-07-19T00:27:12.468Z,20.42
2018-07-19T00:28:12.458Z,20.41
2018-07-19T00:29:12.654Z,20.31
2018-07-19T00:30:12.441Z,20.33
2018-07-19T00:31:12.434Z,20.34
2018-07-19T00:32:12.434Z,20.33
2018-07-19T00:33:12.420Z,20.17
2018-07-19T00:34:12.410Z,20.17
2018-07-19T00:35:12.410Z,20.16
2018-07-19T00:36:12.398Z,20.05
2018-07-19T00:37:12.385Z,20.07
2018-07-19T00:38:12.375Z,20.17
2018-07-19T00:39:12.368Z,20.16
2018-07-19T00:40:12.360Z,20.22
2018-07-19T00:41:12.353Z,20.12
2018-07-19T00:42:12.349Z,20.16
2018-07-19T00:43:12.336Z,20.19
2018-07-19T00:44:12.333Z,20.20
2018-07-19T00:45:12.322Z,20.15
2018-07-19T00:46:12.319Z,20.13
2018-07-19T00:47:12.308Z,20.10
2018-07-19T00:48:12.296Z,20.13
2018-07-19T00:49:12.289Z,20.02
2018-07-19T00:50:12.277Z,19.92
2018-07-19T00:51:12.268Z,19.98
2018-07-19T00:52:12.268Z,19.92
2018-07-19T00:53:12.259Z,19.92
2018-07-19T00:54:12.245Z,20.01
2018-07-19T00:55:12.237Z,20.04
2018-07-19T00:56:12.229Z,20.13
2018-07-19T00:57:12.228Z,20.15
2018-07-19T00:58:12.215Z,20.04
2018-07-19T00:59:12.205Z,20.02
2018-07-19T01:00:12.198Z,20.05
2018-07-19T01:01:12.186Z,19.98
2018-07-19T01:02:12.176Z,19.95
2018-07-19T01:03:12.175Z,20.08
2018-07-19T01:04:12.163Z,20.00
2018-07-19T01:05:12.162Z,19.94
2018-07-19T01:06:12.142Z,19.90
2018-07-19T01:07:12.135Z,19.94
2018-07-19T01:08:12.131Z,19.95
2018-07-19T01:09:12.122Z,19.97
2018-07-19T01:10:12.112Z,19.90
2018-07-19T01:11:12.101Z,19.80
2018-07-19T01:12:12.093Z,19.68
2018-07-19T01:13:12.093Z,19.75
2018-07-19T01:14:12.075Z,19.78
2018-07-19T01:15:12.072Z,19.70
2018-07-19T01:16:12.065Z,19.65
2018-07-19T01:17:12.050Z,19.62
2018-07-19T01:18:12.041Z,19.65
2018-07-19T01:19:12.033Z,19.67
2018-07-19T01:20:12.024Z,19.71
2018-07-19T01:21:12.022Z,19.72
2018-07-19T01:22:12.009Z,19.75
2018-07-19T01:23:12.009Z,19.70
2018-07-19T01:24:11.991Z,19.68
2018-07-19T01:25:11.984Z,19.72
2018-07-19T01:26:11.974Z,19.68
2018-07-19T01:27:11.972Z,19.72
2018-07-19T01:28:11.958Z,19.68
2018-07-19T01:29:11.947Z,19.76
2018-07-19T01:30:11.946Z,19.72
2018-07-19T01:31:11.930Z,19.75
2018-07-19T01:32:11.927Z,19.68
2018-07-19T01:33:11.920Z,19.71
2018-07-19T01:34:11.911Z,19.67
2018-07-19T01:35:11.895Z,19.57
2018-07-19T01:36:11.892Z,19.50
2018-07-19T01:37:11.882Z,19.45
2018-07-19T01:38:11.868Z,19.43
2018-07-19T01:39:11.868Z,19.42
2018-07-19T01:40:11.854Z,19.40
2018-07-19T01:41:11.842Z,19.53
2018-07-19T01:42:11.835Z,19.46
2018-07-19T01:43:11.828Z,19.57
2018-07-19T01:44:11.816Z,19.53
2018-07-19T01:45:11.816Z,19.47
2018-07-19T01:46:11.796Z,19.42
2018-07-19T01:47:11.788Z,19.43
2018-07-19T01:48:11.779Z,19.46
2018-07-19T01:49:11.774Z,19.53
2018-07-19T01:50:11.768Z,19.47
2018-07-19T01:51:11.762Z,19.53
2018-07-19T01:52:11.750Z,19.47
2018-07-19T01:53:11.739Z,19.46
2018-07-19T01:54:11.727Z,19.39
2018-07-19T01:55:11.726Z,19.30
2018-07-19T01:56:11.716Z,19.25
2018-07-19T01:57:11.702Z,19.20
2018-07-19T01:58:11.696Z,19.16
2018-07-19T01:59:11.684Z,19.12
2018-07-19T02:00:11.762Z,19.12
2018-07-19T02:01:11.671Z,19.07
2018-07-19T02:02:11.659Z,19.06
2018-07-19T02:03:11.856Z,18.99
2018-07-19T02:04:11.643Z,18.94
2018-07-19T02:05:11.628Z,18.96
2018-07-19T02:06:11.625Z,18.86
2018-07-19T02:07:11.611Z,18.96
2018-07-19T02:08:11.607Z,18.99
2018-07-19T02:09:11.594Z,18.89
2018-07-19T02:10:11.590Z,18.97
2018-07-19T02:11:11.582Z,18.93
2018-07-19T02:12:11.572Z,18.90
2018-07-19T02:13:11.556Z,18.94
2018-07-19T02:14:11.545Z,18.93
2018-07-19T02:15:11.545Z,18.89
2018-07-19T02:16:11.535Z,18.93
2018-07-19T02:17:11.518Z,18.96
2018-07-19T02:18:11.513Z,18.94
2018-07-19T02:19:11.499Z,18.87
2018-07-19T02:20:11.500Z,18.89
2018-07-19T02:21:11.485Z,18.91
2018-07-19T02:22:11.471Z,18.76
2018-07-19T02:23:11.470Z,18.78
2018-07-19T02:24:11.459Z,18.86
2018-07-19T02:25:11.447Z,18.83
2018-07-19T02:26:11.436Z,18.86
2018-07-19T02:27:11.425Z,18.84
2018-07-19T02:28:11.424Z,18.87
2018-07-19T02:29:11.609Z,18.76
2018-07-19T02:30:11.403Z,18.76
2018-07-19T02:31:11.396Z,18.84
2018-07-19T02:32:11.379Z,18.87
2018-07-19T02:33:11.379Z,18.75
2018-07-19T02:34:11.362Z,18.76
2018-07-19T02:35:11.354Z,18.72
2018-07-19T02:36:11.353Z,18.82
2018-07-19T02:37:11.338Z,18.75
2018-07-19T02:38:11.328Z,18.83
2018-07-19T02:39:11.315Z,18.78
2018-07-19T02:40:11.306Z,18.78
2018-07-19T02:41:11.303Z,18.83
2018-07-19T02:42:11.291Z,18.76
2018-07-19T02:43:11.276Z,18.66
2018-07-19T02:44:11.272Z,18.82
2018-07-19T02:45:11.258Z,18.75
2018-07-19T02:46:11.256Z,18.69
2018-07-19T02:47:11.239Z,18.57
2018-07-19T02:48:11.229Z,18.64
2018-07-19T02:49:11.230Z,18.64
2018-07-19T02:50:11.210Z,18.62
2018-07-19T02:51:11.201Z,18.64
2018-07-19T02:52:11.197Z,18.59
2018-07-19T02:53:11.391Z,18.60
2018-07-19T02:54:11.173Z,18.59
2018-07-19T02:55:11.171Z,18.65
2018-07-19T02:56:11.160Z,18.68
2018-07-19T02:57:11.153Z,18.64
2018-07-19T02:58:11.136Z,18.64
2018-07-19T02:59:11.327Z,18.56
2018-07-19T03:00:11.121Z,18.65
2018-07-19T03:01:11.108Z,18.54
2018-07-19T03:02:11.141Z,18.39
2018-07-19T03:03:11.088Z,18.39
2018-07-19T03:04:11.078Z,18.41
2018-07-19T03:05:11.078Z,18.41
2018-07-19T03:06:11.059Z,18.39
2018-07-19T03:07:11.049Z,18.35
2018-07-19T03:08:11.047Z,18.49
2018-07-19T03:09:11.036Z,18.36
2018-07-19T03:10:11.030Z,18.41
2018-07-19T03:11:11.015Z,18.41
2018-07-19T03:12:11.006Z,18.42
2018-07-19T03:13:10.993Z,18.39
2018-07-19T03:14:10.987Z,18.35
2018-07-19T03:15:10.982Z,18.41
2018-07-19T03:16:10.971Z,18.38
2018-07-19T03:17:10.960Z,18.42
2018-07-19T03:18:10.946Z,18.44
2018-07-19T03:19:10.934Z,18.47
2018-07-19T03:20:10.926Z,18.39
2018-07-19T03:21:10.918Z,18.46
2018-07-19T03:22:10.909Z,18.34
2018-07-19T03:23:10.906Z,18.36
2018-07-19T03:24:10.889Z,18.38
2018-07-19T03:25:10.880Z,18.49
2018-07-19T03:26:10.870Z,18.38
2018-07-19T03:27:10.865Z,18.42
2018-07-19T03:28:10.854Z,18.41
2018-07-19T03:29:10.846Z,18.41
2018-07-19T03:30:10.836Z,18.32
2018-07-19T03:31:10.911Z,18.35
2018-07-19T03:32:10.819Z,18.26
2018-07-19T03:33:10.806Z,18.35
2018-07-19T03:34:10.792Z,18.36
2018-07-19T03:35:10.990Z,18.23
2018-07-19T03:36:10.780Z,18.36
2018-07-19T03:37:10.765Z,18.34
2018-07-19T03:38:10.758Z,18.35
2018-07-19T03:39:10.745Z,18.31
2018-07-19T03:40:10.780Z,18.25
2018-07-19T03:41:10.726Z,18.19
2018-07-19T03:42:10.727Z,18.20
2018-07-19T03:43:10.709Z,18.19
2018-07-19T03:44:10.697Z,18.31
2018-07-19T03:45:10.694Z,18.32
2018-07-19T03:46:10.678Z,18.25
2018-07-19T03:47:10.666Z,18.19
2018-07-19T03:48:10.656Z,18.16
2018-07-19T03:49:10.657Z,18.17
2018-07-19T03:50:10.637Z,18.14
2018-07-19T03:51:10.628Z,18.11
2018-07-19T03:52:10.619Z,18.14
2018-07-19T03:53:10.607Z,18.14
2018-07-19T03:54:10.600Z,18.09
2018-07-19T03:55:10.594Z,18.07
2018-07-19T03:56:10.579Z,18.10
2018-07-19T03:57:10.571Z,18.10
2018-07-19T03:58:10.563Z,18.16
2018-07-19T03:59:10.748Z,18.19
2018-07-19T04:00:10.539Z,18.21
2018-07-19T04:01:10.537Z,18.19
2018-07-19T04:02:10.518Z,18.23
2018-07-19T04:03:10.510Z,18.09
2018-07-19T04:04:10.505Z,18.07
2018-07-19T04:05:10.490Z,18.04
2018-07-19T04:06:10.481Z,17.99
2018-07-19T04:07:10.478Z,17.98
2018-07-19T04:08:10.460Z,17.96
2018-07-19T04:09:10.450Z,17.98
2018-07-19T04:10:10.440Z,17.84
2018-07-19T04:11:10.434Z,17.96
2018-07-19T04:12:10.426Z,17.94
2018-07-19T04:13:10.420Z,17.84
2018-07-19T04:14:10.408Z,17.79
2018-07-19T04:15:10.390Z,17.68
2018-07-19T04:16:10.380Z,17.68
2018-07-19T04:17:10.440Z,17.83
2018-07-19T04:18:10.365Z,17.86
2018-07-19T04:19:10.350Z,17.87
2018-07-19T04:20:10.343Z,17.83
2018-07-19T04:21:10.330Z,17.87
2018-07-19T04:22:10.325Z,17.84
2018-07-19T04:23:10.511Z,17.92
2018-07-19T04:24:10.302Z,17.86
2018-07-19T04:25:10.339Z,17.83
2018-07-19T04:26:10.282Z,17.71
2018-07-19T04:27:10.273Z,17.84
2018-07-19T04:28:10.261Z,17.86
2018-07-19T04:29:10.451Z,17.74
2018-07-19T04:30:10.240Z,17.71
2018-07-19T04:31:10.234Z,17.76
2018-07-19T04:32:10.232Z,17.71
2018-07-19T04:33:10.210Z,17.86
2018-07-19T04:34:10.199Z,17.74
2018-07-19T04:35:10.192Z,17.76
2018-07-19T04:36:10.180Z,17.53
2018-07-19T04:37:10.169Z,17.63
2018-07-19T04:38:10.174Z,17.58
2018-07-19T04:39:10.150Z,17.58
2018-07-19T04:40:10.142Z,17.62
2018-07-19T04:41:10.130Z,17.66
2018-07-19T04:42:10.119Z,17.68
2018-07-19T04:43:10.111Z,17.76
2018-07-19T04:44:10.101Z,17.71
2018-07-19T04:45:10.090Z,17.73
2018-07-19T04:46:10.078Z,17.86
2018-07-19T04:47:10.269Z,17.71
2018-07-19T04:48:10.101Z,17.77
2018-07-19T04:49:10.048Z,17.76
2018-07-19T04:50:10.039Z,17.86
2018-07-19T04:51:10.028Z,17.86
2018-07-19T04:52:10.018Z,17.87
2018-07-19T04:53:10.007Z,17.81
2018-07-19T04:54:09.998Z,17.86
2018-07-19T04:55:09.986Z,17.89
2018-07-19T04:56:09.977Z,17.74
2018-07-19T04:57:09.976Z,17.71
2018-07-19T04:58:09.957Z,17.74
2018-07-19T04:59:09.947Z,17.71
2018-07-19T05:00:09.936Z,17.71
2018-07-19T05:01:09.926Z,17.73
2018-07-19T05:02:09.923Z,17.58
2018-07-19T05:03:09.907Z,17.57
2018-07-19T05:04:09.896Z,17.46
2018-07-19T05:05:09.889Z,17.46
2018-07-19T05:06:09.875Z,17.53
2018-07-19T05:07:09.864Z,17.46
2018-07-19T05:08:09.855Z,17.47
2018-07-19T05:09:09.845Z,17.42
2018-07-19T05:10:09.834Z,17.40
2018-07-19T05:11:09.823Z,17.47
2018-07-19T05:12:09.816Z,17.39
2018-07-19T05:13:09.805Z,17.43
2018-07-19T05:14:09.799Z,17.49
2018-07-19T05:15:09.783Z,17.47
2018-07-19T05:16:09.773Z,17.49
2018-07-19T05:17:09.764Z,17.45
2018-07-19T05:18:09.757Z,17.40
2018-07-19T05:19:09.742Z,17.43
2018-07-19T05:20:09.732Z,17.45
2018-07-19T05:21:09.722Z,17.42
2018-07-19T05:22:09.715Z,17.35
2018-07-19T05:23:09.718Z,17.30
2018-07-19T05:24:09.692Z,17.36
2018-07-19T05:25:09.681Z,17.32
2018-07-19T05:26:09.670Z,17.28
2018-07-19T05:27:09.661Z,17.18
2018-07-19T05:28:09.650Z,17.20
2018-07-19T05:29:09.640Z,17.20
2018-07-19T05:30:09.629Z,17.22
2018-07-19T05:31:09.618Z,17.30
2018-07-19T05:32:09.612Z,17.33
2018-07-19T05:33:09.598Z,17.30
2018-07-19T05:34:09.591Z,17.27
2018-07-19T05:35:09.577Z,17.21
2018-07-19T05:36:09.567Z,17.21
2018-07-19T05:37:09.557Z,17.22
2018-07-19T05:38:09.546Z,17.18
2018-07-19T05:39:09.538Z,17.21
2018-07-19T05:40:09.532Z,17.22
2018-07-19T05:41:09.520Z,17.21
2018-07-19T05:42:09.515Z,17.21
2018-07-19T05:43:09.497Z,17.25
2018-07-19T05:44:09.484Z,17.17
2018-07-19T05:45:09.473Z,17.22
2018-07-19T05:46:09.464Z,17.17
2018-07-19T05:47:09.453Z,17.10
2018-07-19T05:48:09.442Z,17.15
2018-07-19T05:49:09.432Z,17.06
2018-07-19T05:50:09.428Z,17.10
2018-07-19T05:51:09.412Z,17.10
2018-07-19T05:52:09.400Z,17.15
2018-07-19T05:53:09.590Z,17.14
2018-07-19T05:54:09.378Z,17.18
2018-07-19T05:55:09.368Z,17.18
2018-07-19T05:56:09.358Z,17.15
2018-07-19T05:57:09.347Z,17.14
2018-07-19T05:58:09.375Z,17.14
2018-07-19T05:59:09.325Z,17.14
2018-07-19T06:00:09.316Z,17.07
2018-07-19T06:01:09.305Z,17.17
2018-07-19T06:02:09.294Z,17.22
2018-07-19T06:03:09.285Z,17.18
2018-07-19T06:04:09.276Z,17.07
2018-07-19T06:05:09.263Z,17.12
2018-07-19T06:06:09.256Z,17.27
2018-07-19T06:07:09.241Z,17.07
2018-07-19T06:08:09.235Z,17.10
2018-07-19T06:09:09.220Z,16.99
2018-07-19T06:10:09.209Z,16.99
2018-07-19T06:11:09.200Z,16.98
2018-07-19T06:12:09.188Z,16.96
2018-07-19T06:13:09.179Z,16.87
2018-07-19T06:14:09.168Z,16.90
2018-07-19T06:15:09.156Z,16.98
2018-07-19T06:16:09.197Z,16.96
2018-07-19T06:17:09.137Z,17.02
2018-07-19T06:18:09.124Z,17.12
2018-07-19T06:19:09.114Z,16.98
2018-07-19T06:20:09.103Z,17.07
2018-07-19T06:21:09.092Z,17.00
2018-07-19T06:22:09.085Z,16.99
2018-07-19T06:23:09.072Z,17.00
2018-07-19T06:24:09.061Z,17.03
2018-07-19T06:25:09.051Z,17.02
2018-07-19T06:26:09.042Z,17.06
2018-07-19T06:27:09.029Z,17.02
2018-07-19T06:28:09.018Z,17.03
2018-07-19T06:29:09.008Z,17.09
2018-07-19T06:30:08.997Z,17.05
2018-07-19T06:31:08.987Z,17.10
2018-07-19T06:32:08.976Z,17.06
2018-07-19T06:33:08.967Z,17.02
2018-07-19T06:34:08.955Z,16.91
2018-07-19T06:35:08.945Z,16.81
2018-07-19T06:36:08.934Z,16.84
2018-07-19T06:37:08.924Z,16.75
2018-07-19T06:38:08.912Z,16.78
2018-07-19T06:39:08.902Z,16.72
2018-07-19T06:40:08.891Z,16.77
2018-07-19T06:41:08.894Z,16.72
2018-07-19T06:42:08.871Z,16.72
2018-07-19T06:43:08.859Z,16.84
2018-07-19T06:44:08.848Z,16.81
2018-07-19T06:45:08.839Z,16.75
2018-07-19T06:46:08.826Z,16.73
2018-07-19T06:47:08.817Z,16.77
2018-07-19T06:48:08.804Z,16.70
2018-07-19T06:49:08.794Z,16.73
2018-07-19T06:50:08.783Z,16.69
2018-07-19T06:51:08.774Z,16.80
2018-07-19T06:52:08.762Z,16.67
2018-07-19T06:53:08.751Z,16.77
2018-07-19T06:54:08.741Z,16.73
2018-07-19T06:55:08.729Z,16.78
2018-07-19T06:56:08.719Z,16.72
2018-07-19T06:57:08.708Z,16.75
2018-07-19T06:58:08.699Z,16.65
2018-07-19T06:59:08.886Z,16.55
2018-07-19T07:00:08.676Z,16.59
2018-07-19T07:01:08.665Z,16.55
2018-07-19T07:02:08.653Z,16.55
2018-07-19T07:03:08.642Z,16.50
2018-07-19T07:04:08.631Z,16.59
2018-07-19T07:05:08.624Z,16.55
2018-07-19T07:06:08.609Z,16.60
2018-07-19T07:07:08.598Z,16.59
2018-07-19T07:08:08.588Z,16.59
2018-07-19T07:09:08.577Z,16.55
2018-07-19T07:10:08.566Z,16.63
2018-07-19T07:11:08.555Z,16.55
2018-07-19T07:12:08.544Z,16.60
2018-07-19T07:13:08.533Z,16.57
2018-07-19T07:14:08.522Z,16.62
2018-07-19T07:15:08.511Z,16.57
2018-07-19T07:16:08.503Z,16.62
2018-07-19T07:17:08.490Z,16.67
2018-07-19T07:18:08.482Z,16.62
2018-07-19T07:19:08.470Z,16.60
2018-07-19T07:20:08.456Z,16.47
2018-07-19T07:21:08.482Z,16.55
2018-07-19T07:22:08.435Z,16.54
2018-07-19T07:23:08.423Z,16.51
2018-07-19T07:24:08.413Z,16.48
2018-07-19T07:25:08.402Z,16.51
2018-07-19T07:26:08.391Z,16.54
2018-07-19T07:27:08.380Z,16.57
2018-07-19T07:28:08.383Z,16.63
2018-07-19T07:29:08.358Z,16.59
2018-07-19T07:30:08.348Z,16.55
2018-07-19T07:31:08.336Z,16.59
2018-07-19T07:32:08.325Z,16.66
2018-07-19T07:33:08.314Z,16.51
2018-07-19T07:34:08.332Z,16.62
2018-07-19T07:35:08.292Z,16.50
2018-07-19T07:36:08.281Z,16.66
2018-07-19T07:37:08.271Z,16.59
2018-07-19T07:38:08.258Z,16.65
2018-07-19T07:39:08.248Z,16.67
2018-07-19T07:40:08.238Z,16.66
2018-07-19T07:41:08.229Z,16.70
2018-07-19T07:42:08.215Z,16.72
2018-07-19T07:43:08.204Z,16.72
2018-07-19T07:44:08.235Z,16.65
2018-07-19T07:45:08.183Z,16.60
2018-07-19T07:46:08.171Z,16.55
2018-07-19T07:47:08.163Z,16.50
2018-07-19T07:48:08.150Z,16.42
2018-07-19T07:49:08.141Z,16.50
2018-07-19T07:50:08.127Z,16.51
2018-07-19T07:51:08.116Z,16.65
2018-07-19T07:52:08.105Z,16.63
2018-07-19T07:53:08.097Z,16.55
2018-07-19T07:54:08.085Z,16.55
2018-07-19T07:55:08.075Z,16.55
2018-07-19T07:56:08.062Z,16.52
2018-07-19T07:57:08.051Z,16.59
2018-07-19T07:58:08.040Z,16.59
2018-07-19T07:59:08.029Z,16.52
2018-07-19T08:00:08.018Z,16.63
2018-07-19T08:01:08.010Z,16.59
2018-07-19T08:02:07.995Z,16.62
2018-07-19T08:03:07.984Z,16.60
2018-07-19T08:04:07.974Z,16.75
2018-07-19T08:05:07.963Z,16.67
2018-07-19T08:06:07.953Z,16.73
2018-07-19T08:07:07.940Z,16.78
2018-07-19T08:08:07.930Z,16.69
2018-07-19T08:09:07.924Z,16.65
2018-07-19T08:10:07.908Z,16.69
2018-07-19T08:11:08.097Z,16.80
2018-07-19T08:12:07.885Z,16.75
2018-07-19T08:13:07.875Z,16.69
2018-07-19T08:14:07.863Z,16.77
2018-07-19T08:15:07.856Z,16.72
2018-07-19T08:16:07.844Z,16.67
2018-07-19T08:17:07.832Z,16.72
2018-07-19T08:18:07.820Z,16.80
2018-07-19T08:19:07.809Z,16.72
2018-07-19T08:20:07.798Z,16.66
2018-07-19T08:21:07.787Z,16.67
2018-07-19T08:22:07.776Z,16.67
2018-07-19T08:23:07.965Z,16.67
2018-07-19T08:24:07.754Z,16.57
2018-07-19T08:25:07.743Z,16.66
2018-07-19T08:26:07.732Z,16.65
2018-07-19T08:27:07.721Z,16.57
2018-07-19T08:28:07.711Z,16.63
2018-07-19T08:29:07.731Z,16.63
2018-07-19T08:30:07.688Z,16.63
2018-07-19T08:31:07.677Z,16.60
2018-07-19T08:32:07.666Z,16.67
2018-07-19T08:33:07.656Z,16.66
2018-07-19T08:34:07.644Z,16.69
2018-07-19T08:35:07.835Z,16.70
2018-07-19T08:36:07.663Z,16.73
2018-07-19T08:37:07.612Z,16.70
2018-07-19T08:38:07.604Z,16.72
2018-07-19T08:39:07.591Z,16.63
2018-07-19T08:40:07.579Z,16.66
2018-07-19T08:41:07.569Z,16.70
2018-07-19T08:42:07.563Z,16.65
2018-07-19T08:43:07.547Z,16.60
2018-07-19T08:44:07.540Z,16.59
2018-07-19T08:45:07.525Z,16.51
2018-07-19T08:46:07.512Z,16.59
2018-07-19T08:47:07.502Z,16.54
2018-07-19T08:48:07.491Z,16.47
2018-07-19T08:49:07.481Z,16.50
2018-07-19T08:50:07.468Z,16.44
2018-07-19T08:51:07.458Z,16.42
2018-07-19T08:52:07.448Z,16.42
2018-07-19T08:53:07.437Z,16.45
2018-07-19T08:54:07.426Z,16.45
2018-07-19T08:55:07.416Z,16.52
2018-07-19T08:56:07.403Z,16.50
2018-07-19T08:57:07.393Z,16.54
2018-07-19T08:58:07.380Z,16.52
2018-07-19T08:59:07.370Z,16.54
2018-07-19T09:00:07.358Z,16.59
2018-07-19T09:01:07.348Z,16.70
2018-07-19T09:02:07.336Z,16.52
2018-07-19T09:03:07.325Z,16.55
2018-07-19T09:04:07.314Z,16.51
2018-07-19T09:05:07.304Z,16.44
2018-07-19T09:06:07.292Z,16.47
2018-07-19T09:07:07.281Z,16.51
2018-07-19T09:08:07.270Z,16.45
2018-07-19T09:09:07.259Z,16.55
2018-07-19T09:10:07.248Z,16.47
2018-07-19T09:11:07.237Z,16.51
2018-07-19T09:12:07.225Z,16.60
2018-07-19T09:13:07.218Z,16.50
2018-07-19T09:14:07.244Z,16.48
2018-07-19T09:15:07.195Z,16.42
2018-07-19T09:16:07.182Z,16.42
2018-07-19T09:17:07.170Z,16.30
2018-07-19T09:18:07.160Z,16.27
2018-07-19T09:19:07.148Z,16.22
2018-07-19T09:20:07.139Z,16.22
2018-07-19T09:21:07.127Z,16.26
2018-07-19T09:22:07.114Z,16.34
2018-07-19T09:23:07.103Z,16.36
2018-07-19T09:24:07.094Z,16.36
2018-07-19T09:25:07.081Z,16.29
2018-07-19T09:26:07.069Z,16.26
2018-07-19T09:27:07.058Z,16.26
2018-07-19T09:28:07.050Z,16.18
2018-07-19T09:29:07.037Z,16.22
2018-07-19T09:30:07.025Z,16.23
2018-07-19T09:31:07.015Z,16.25
2018-07-19T09:32:07.005Z,16.23
2018-07-19T09:33:06.991Z,16.18
2018-07-19T09:34:06.982Z,16.23
2018-07-19T09:35:06.969Z,16.36
2018-07-19T09:36:06.958Z,16.37
2018-07-19T09:37:06.948Z,16.34
2018-07-19T09:38:06.936Z,16.40
2018-07-19T09:39:06.925Z,16.48
2018-07-19T09:40:06.913Z,16.40
2018-07-19T09:41:07.104Z,16.48
2018-07-19T09:42:06.890Z,16.50
2018-07-19T09:43:06.880Z,16.50
2018-07-19T09:44:06.873Z,16.41
2018-07-19T09:45:06.858Z,16.50
2018-07-19T09:46:06.847Z,16.50
2018-07-19T09:47:06.837Z,16.54
2018-07-19T09:48:06.824Z,16.51
2018-07-19T09:49:06.814Z,16.50
2018-07-19T09:50:06.801Z,16.62
2018-07-19T09:51:06.793Z,16.51
2018-07-19T09:52:06.779Z,16.59
2018-07-19T09:53:06.772Z,16.63
2018-07-19T09:54:06.757Z,16.52
2018-07-19T09:55:06.746Z,16.57
2018-07-19T09:56:06.736Z,16.52
2018-07-19T09:57:06.724Z,16.52
2018-07-19T09:58:06.713Z,16.50
2018-07-19T09:59:06.702Z,16.44
2018-07-19T10:00:06.692Z,16.44
2018-07-19T10:01:06.680Z,16.32
2018-07-19T10:02:06.668Z,16.42
2018-07-19T10:03:06.657Z,16.34
2018-07-19T10:04:06.646Z,16.36
2018-07-19T10:05:06.636Z,16.32
2018-07-19T10:06:06.623Z,16.42
2018-07-19T10:07:06.620Z,16.42
2018-07-19T10:08:06.604Z,16.47
2018-07-19T10:09:06.591Z,16.47
2018-07-19T10:10:06.625Z,16.33
2018-07-19T10:11:06.668Z,16.33
2018-07-19T10:12:06.615Z,16.41
2018-07-19T10:13:06.547Z,16.42
2018-07-19T10:14:06.535Z,16.42
2018-07-19T10:15:06.524Z,16.45
2018-07-19T10:16:06.516Z,16.45
2018-07-19T10:17:06.502Z,16.36
2018-07-19T10:18:06.491Z,16.42
2018-07-19T10:19:06.479Z,16.44
2018-07-19T10:20:06.470Z,16.33
2018-07-19T10:21:06.460Z,16.40
2018-07-19T10:22:06.446Z,16.42
2018-07-19T10:23:06.437Z,16.37
2018-07-19T10:24:06.425Z,16.42
2018-07-19T10:25:06.416Z,16.44
2018-07-19T10:26:06.401Z,16.44
2018-07-19T10:27:06.391Z,16.45
2018-07-19T10:28:06.381Z,16.51
2018-07-19T10:29:06.371Z,16.51
2018-07-19T10:30:06.379Z,16.50
2018-07-19T10:31:06.347Z,16.57
2018-07-19T10:32:06.420Z,16.54
2018-07-19T10:33:06.325Z,16.47
2018-07-19T10:34:06.321Z,16.50
2018-07-19T10:35:06.302Z,16.47
2018-07-19T10:36:06.291Z,16.54
2018-07-19T10:37:06.284Z,16.60
2018-07-19T10:38:06.269Z,16.59
2018-07-19T10:39:06.261Z,16.41
2018-07-19T10:40:06.248Z,16.47
2018-07-19T10:41:06.237Z,16.52
2018-07-19T10:42:06.226Z,16.54
2018-07-19T10:43:06.278Z,16.60
2018-07-19T10:44:06.203Z,16.66
2018-07-19T10:45:06.193Z,16.67
2018-07-19T10:46:06.188Z,16.66
2018-07-19T10:47:06.177Z,16.67
2018-07-19T10:48:06.163Z,16.75
2018-07-19T10:49:06.151Z,16.77
2018-07-19T10:50:06.137Z,16.80
2018-07-19T10:51:06.127Z,16.75
2018-07-19T10:52:06.116Z,16.82
2018-07-19T10:53:06.305Z,16.82
2018-07-19T10:54:06.094Z,16.90
2018-07-19T10:55:06.083Z,16.88
2018-07-19T10:56:06.076Z,16.92
2018-07-19T10:57:06.063Z,16.99
2018-07-19T10:58:06.052Z,16.96
2018-07-19T10:59:06.040Z,16.92
2018-07-19T11:00:06.030Z,16.98
2018-07-19T11:01:06.019Z,17.00
2018-07-19T11:02:06.029Z,17.07
2018-07-19T11:03:05.999Z,16.98
2018-07-19T11:04:05.987Z,17.06
2018-07-19T11:05:05.976Z,17.07
2018-07-19T11:06:05.969Z,17.12
2018-07-19T11:07:05.954Z,17.22
2018-07-19T11:08:05.946Z,17.22
2018-07-19T11:09:05.933Z,17.21
2018-07-19T11:10:05.940Z,17.18
2018-07-19T11:11:06.112Z,17.18
2018-07-19T11:12:05.901Z,17.32
2018-07-19T11:13:05.891Z,17.27
2018-07-19T11:14:05.880Z,17.30
2018-07-19T11:15:05.870Z,17.33
2018-07-19T11:16:05.868Z,17.38
2018-07-19T11:17:05.856Z,17.39
2018-07-19T11:18:05.838Z,17.43
2018-07-19T11:19:05.831Z,17.39
2018-07-19T11:20:05.817Z,17.42
2018-07-19T11:21:05.807Z,17.49
2018-07-19T11:22:05.797Z,17.53
2018-07-19T11:23:05.786Z,17.53
2018-07-19T11:24:05.776Z,17.53
2018-07-19T11:25:05.772Z,17.57
2018-07-19T11:26:05.756Z,17.60
2018-07-19T11:27:05.746Z,17.63
2018-07-19T11:28:05.740Z,17.63
2018-07-19T11:29:05.934Z,17.71
2018-07-19T11:30:05.715Z,17.74
2018-07-19T11:31:05.709Z,17.70
2018-07-19T11:32:05.711Z,17.70
2018-07-19T11:33:05.697Z,17.80
2018-07-19T11:34:05.682Z,17.87
2018-07-19T11:35:05.675Z,17.94
2018-07-19T11:36:05.655Z,18.16
2018-07-19T11:37:05.649Z,18.29
2018-07-19T11:38:05.633Z,18.34
2018-07-19T11:39:05.632Z,18.41
2018-07-19T11:40:05.616Z,18.56
2018-07-19T11:41:05.608Z,18.66
2018-07-19T11:42:05.595Z,18.79
2018-07-19T11:43:05.591Z,18.90
2018-07-19T11:44:05.578Z,18.96
2018-07-19T11:45:05.576Z,19.12
2018-07-19T11:46:05.561Z,19.20
2018-07-19T11:47:05.549Z,19.28
2018-07-19T11:48:05.539Z,19.35
2018-07-19T11:49:05.530Z,19.53
2018-07-19T11:50:05.524Z,19.67
2018-07-19T11:51:05.513Z,19.83
2018-07-19T11:52:05.503Z,19.92
2018-07-19T11:53:05.496Z,20.12
2018-07-19T11:54:05.495Z,20.17
2018-07-19T11:55:05.486Z,20.31
2018-07-19T11:56:05.473Z,20.57
2018-07-19T11:57:05.465Z,20.51
2018-07-19T11:58:05.465Z,20.63
2018-07-19T11:59:05.450Z,20.78
2018-07-19T12:00:05.443Z,20.90
2018-07-19T12:01:05.431Z,21.06
2018-07-19T12:02:05.418Z,21.05
2018-07-19T12:03:05.415Z,21.26
2018-07-19T12:04:05.402Z,21.31
2018-07-19T12:05:05.396Z,21.34
2018-07-19T12:06:05.393Z,21.28
2018-07-19T12:07:05.380Z,21.37
2018-07-19T12:08:05.372Z,21.45
2018-07-19T12:09:05.365Z,21.55
2018-07-19T12:10:05.358Z,21.71
2018-07-19T12:11:05.348Z,21.81
2018-07-19T12:12:05.341Z,21.91
2018-07-19T12:13:05.334Z,22.05
2018-07-19T12:14:05.329Z,22.06
2018-07-19T12:15:05.319Z,22.11
2018-07-19T12:16:05.311Z,22.20
2018-07-19T12:17:05.305Z,22.05
2018-07-19T12:18:05.344Z,22.15
2018-07-19T12:19:05.290Z,22.14
2018-07-19T12:20:05.289Z,22.24
2018-07-19T12:21:05.276Z,22.44
2018-07-19T12:22:05.273Z,22.59
2018-07-19T12:23:05.264Z,22.60
2018-07-19T12:24:05.255Z,22.61
2018-07-19T12:25:05.248Z,22.72
2018-07-19T12:26:05.240Z,22.78
2018-07-19T12:27:05.235Z,23.01
2018-07-19T12:28:05.230Z,23.04
2018-07-19T12:29:05.221Z,23.21
2018-07-19T12:30:05.218Z,23.34
2018-07-19T12:31:05.207Z,23.18
2018-07-19T12:32:05.202Z,23.21
2018-07-19T12:33:05.205Z,23.26
2018-07-19T12:34:05.202Z,23.16
2018-07-19T12:35:05.186Z,23.18
2018-07-19T12:36:05.176Z,23.34
2018-07-19T12:37:05.174Z,23.50
2018-07-19T12:38:05.162Z,23.41
2018-07-19T12:39:05.158Z,23.15
2018-07-19T12:40:05.152Z,23.09
2018-07-19T12:41:05.146Z,23.11
2018-07-19T12:42:05.137Z,23.15
2018-07-19T12:43:05.131Z,23.21
2018-07-19T12:44:05.125Z,23.25
2018-07-19T12:45:05.131Z,23.39
2018-07-19T12:46:05.124Z,23.56
2018-07-19T12:47:05.117Z,23.49
2018-07-19T12:48:05.117Z,23.31
2018-07-19T12:49:05.104Z,23.34
2018-07-19T12:50:05.097Z,23.26
2018-07-19T12:51:05.091Z,23.22
2018-07-19T12:52:05.145Z,23.52